sensor_id;sensor_type;location;lat;lon;timestamp;temperature;humidity
44627;DHT22;30333;52.192;8.834;2023-05-07T00:01:57;13.00;99.90
44627;DHT22;30333;52.192;8.834;2023-05-07T00:04:22;12.50;99.90
44627;DHT22;30333;52.192;8.834;2023-05-07T00:06:48;12.50;99.90
44627;DHT22;30333;52.192;8.834;2023-05-07T00:11:39;12.40;99.90
44627;DHT22;30333;52.192;8.834;2023-05-07T00:14:05;12.50;99.90
44627;DHT22;30333;52.192;8.834;2023-05-07T00:16:31;12.50;99.90
44627;DHT22;30333;52.192;8.834;2023-05-07T00:18:56;12.50;99.90
44627;DHT22;30333;52.192;8.834;2023-05-07T00:21:22;12.50;99.90
44627;DHT22;30333;52.192;8.834;2023-05-07T00:23:47;12.50;99.90
44627;DHT22;30333;52.192;8.834;2023-05-07T00:26:13;12.40;99.90
44627;DHT22;30333;52.192;8.834;2023-05-07T00:28:38;12.30;99.90
44627;DHT22;30333;52.192;8.834;2023-05-07T00:31:04;12.30;99.90
44627;DHT22;30333;52.192;8.834;2023-05-07T00:33:30;12.30;99.90
44627;DHT22;30333;52.192;8.834;2023-05-07T00:38:21;12.20;99.90
44627;DHT22;30333;52.192;8.834;2023-05-07T00:40:47;12.30;99.90
44627;DHT22;30333;52.192;8.834;2023-05-07T00:43:12;12.30;99.90
44627;DHT22;30333;52.192;8.834;2023-05-07T00:45:38;12.30;99.90
44627;DHT22;30333;52.192;8.834;2023-05-07T00:48:04;12.30;99.90
44627;DHT22;30333;52.192;8.834;2023-05-07T00:50:30;12.30;99.90
44627;DHT22;30333;52.192;8.834;2023-05-07T00:55:23;12.10;99.90
44627;DHT22;30333;52.192;8.834;2023-05-07T00:57:50;12.10;99.90
44627;DHT22;30333;52.192;8.834;2023-05-07T01:00:16;12.20;99.90
44627;DHT22;30333;52.192;8.834;2023-05-07T01:05:10;12.20;99.90
44627;DHT22;30333;52.192;8.834;2023-05-07T01:07:39;12.20;99.90
44627;DHT22;30333;52.192;8.834;2023-05-07T01:10:06;12.10;99.90
44627;DHT22;30333;52.192;8.834;2023-05-07T01:12:33;12.00;99.90
44627;DHT22;30333;52.192;8.834;2023-05-07T01:14:59;12.20;99.90
44627;DHT22;30333;52.192;8.834;2023-05-07T01:17:25;12.10;99.90
44627;DHT22;30333;52.192;8.834;2023-05-07T01:22:29;12.10;99.90
44627;DHT22;30333;52.192;8.834;2023-05-07T01:24:55;12.00;99.90
44627;DHT22;30333;52.192;8.834;2023-05-07T01:27:21;12.10;99.90
44627;DHT22;30333;52.192;8.834;2023-05-07T01:29:47;12.20;99.90
44627;DHT22;30333;52.192;8.834;2023-05-07T01:32:13;12.70;99.90
44627;DHT22;30333;52.192;8.834;2023-05-07T01:39:32;12.20;99.90
44627;DHT22;30333;52.192;8.834;2023-05-07T01:41:59;12.20;99.90
44627;DHT22;30333;52.192;8.834;2023-05-07T01:44:25;12.20;99.90
44627;DHT22;30333;52.192;8.834;2023-05-07T01:46:51;12.60;99.90
44627;DHT22;30333;52.192;8.834;2023-05-07T01:54:10;12.10;99.90
44627;DHT22;30333;52.192;8.834;2023-05-07T01:56:35;12.10;99.90
44627;DHT22;30333;52.192;8.834;2023-05-07T01:59:01;12.00;99.90
44627;DHT22;30333;52.192;8.834;2023-05-07T02:01:27;11.90;99.90
44627;DHT22;30333;52.192;8.834;2023-05-07T02:06:19;11.80;99.90
44627;DHT22;30333;52.192;8.834;2023-05-07T02:08:45;11.80;99.90
44627;DHT22;30333;52.192;8.834;2023-05-07T02:11:10;11.90;99.90
44627;DHT22;30333;52.192;8.834;2023-05-07T02:16:02;11.60;99.90
44627;DHT22;30333;52.192;8.834;2023-05-07T02:18:28;11.60;99.90
44627;DHT22;30333;52.192;8.834;2023-05-07T02:25:45;11.70;99.90
44627;DHT22;30333;52.192;8.834;2023-05-07T02:33:03;11.70;99.90
44627;DHT22;30333;52.192;8.834;2023-05-07T02:35:29;11.70;99.90
44627;DHT22;30333;52.192;8.834;2023-05-07T02:37:54;11.50;99.90
44627;DHT22;30333;52.192;8.834;2023-05-07T02:40:20;12.20;99.90
44627;DHT22;30333;52.192;8.834;2023-05-07T02:42:45;11.70;99.90
44627;DHT22;30333;52.192;8.834;2023-05-07T02:45:11;11.70;99.90
44627;DHT22;30333;52.192;8.834;2023-05-07T02:47:36;11.70;99.90
44627;DHT22;30333;52.192;8.834;2023-05-07T02:50:02;11.50;99.90
44627;DHT22;30333;52.192;8.834;2023-05-07T02:52:28;11.50;99.90
44627;DHT22;30333;52.192;8.834;2023-05-07T02:54:54;11.50;99.90
44627;DHT22;30333;52.192;8.834;2023-05-07T02:57:19;11.50;99.90
44627;DHT22;30333;52.192;8.834;2023-05-07T03:04:37;11.50;99.90
44627;DHT22;30333;52.192;8.834;2023-05-07T03:07:03;11.60;99.90
44627;DHT22;30333;52.192;8.834;2023-05-07T03:09:28;11.40;99.90
44627;DHT22;30333;52.192;8.834;2023-05-07T03:11:54;12.30;99.90
44627;DHT22;30333;52.192;8.834;2023-05-07T03:14:19;11.50;99.90
44627;DHT22;30333;52.192;8.834;2023-05-07T03:16:45;11.40;99.90
44627;DHT22;30333;52.192;8.834;2023-05-07T03:19:11;11.90;99.90
44627;DHT22;30333;52.192;8.834;2023-05-07T03:21:36;12.00;99.90
44627;DHT22;30333;52.192;8.834;2023-05-07T03:26:28;11.50;99.90
44627;DHT22;30333;52.192;8.834;2023-05-07T03:28:53;11.40;99.90
44627;DHT22;30333;52.192;8.834;2023-05-07T03:31:19;11.40;99.90
44627;DHT22;30333;52.192;8.834;2023-05-07T03:33:54;11.40;99.90
44627;DHT22;30333;52.192;8.834;2023-05-07T03:36:20;12.00;99.90
44627;DHT22;30333;52.192;8.834;2023-05-07T03:41:12;11.40;99.90
44627;DHT22;30333;52.192;8.834;2023-05-07T03:43:38;11.40;99.90
44627;DHT22;30333;52.192;8.834;2023-05-07T03:46:03;11.30;99.90
44627;DHT22;30333;52.192;8.834;2023-05-07T03:48:29;11.20;99.90
44627;DHT22;30333;52.192;8.834;2023-05-07T03:50:55;11.20;99.90
44627;DHT22;30333;52.192;8.834;2023-05-07T03:53:21;11.40;99.90
44627;DHT22;30333;52.192;8.834;2023-05-07T03:55:46;12.00;99.90
44627;DHT22;30333;52.192;8.834;2023-05-07T04:00:37;11.40;99.90
44627;DHT22;30333;52.192;8.834;2023-05-07T04:03:05;11.40;99.90
44627;DHT22;30333;52.192;8.834;2023-05-07T04:05:31;11.40;99.90
44627;DHT22;30333;52.192;8.834;2023-05-07T04:07:58;11.40;99.90
44627;DHT22;30333;52.192;8.834;2023-05-07T04:12:50;11.40;99.90
44627;DHT22;30333;52.192;8.834;2023-05-07T04:15:15;11.50;99.90
44627;DHT22;30333;52.192;8.834;2023-05-07T04:17:41;11.60;99.90
44627;DHT22;30333;52.192;8.834;2023-05-07T04:20:10;11.60;99.90
44627;DHT22;30333;52.192;8.834;2023-05-07T04:22:36;11.50;99.90
44627;DHT22;30333;52.192;8.834;2023-05-07T04:25:02;11.60;99.90
44627;DHT22;30333;52.192;8.834;2023-05-07T04:29:53;11.50;99.90
44627;DHT22;30333;52.192;8.834;2023-05-07T04:37:13;11.50;99.90
44627;DHT22;30333;52.192;8.834;2023-05-07T04:39:38;11.40;99.90
44627;DHT22;30333;52.192;8.834;2023-05-07T04:49:25;11.50;99.90
44627;DHT22;30333;52.192;8.834;2023-05-07T04:51:51;11.50;99.90
44627;DHT22;30333;52.192;8.834;2023-05-07T04:54:16;11.50;99.90
44627;DHT22;30333;52.192;8.834;2023-05-07T04:59:08;11.60;99.90
44627;DHT22;30333;52.192;8.834;2023-05-07T05:01:33;11.50;99.90
44627;DHT22;30333;52.192;8.834;2023-05-07T05:03:59;11.50;99.90
44627;DHT22;30333;52.192;8.834;2023-05-07T05:18:35;11.70;99.90
44627;DHT22;30333;52.192;8.834;2023-05-07T05:21:00;11.70;99.90
44627;DHT22;30333;52.192;8.834;2023-05-07T05:23:26;11.80;99.90
44627;DHT22;30333;52.192;8.834;2023-05-07T05:25:56;11.70;99.90
44627;DHT22;30333;52.192;8.834;2023-05-07T05:33:15;11.90;99.90
44627;DHT22;30333;52.192;8.834;2023-05-07T05:35:41;12.30;99.90
44627;DHT22;30333;52.192;8.834;2023-05-07T05:38:06;12.00;99.90
44627;DHT22;30333;52.192;8.834;2023-05-07T05:40:32;12.20;99.90
44627;DHT22;30333;52.192;8.834;2023-05-07T05:42:58;12.10;99.90
44627;DHT22;30333;52.192;8.834;2023-05-07T05:45:24;12.20;99.90
44627;DHT22;30333;52.192;8.834;2023-05-07T05:47:50;12.20;99.90
44627;DHT22;30333;52.192;8.834;2023-05-07T05:50:15;12.30;99.90
44627;DHT22;30333;52.192;8.834;2023-05-07T05:52:41;12.30;99.90
44627;DHT22;30333;52.192;8.834;2023-05-07T05:55:08;12.50;99.90
44627;DHT22;30333;52.192;8.834;2023-05-07T05:57:34;12.40;99.90
44627;DHT22;30333;52.192;8.834;2023-05-07T06:00:00;12.60;99.90
44627;DHT22;30333;52.192;8.834;2023-05-07T06:12:10;12.40;99.90
44627;DHT22;30333;52.192;8.834;2023-05-07T06:14:35;12.50;99.90
44627;DHT22;30333;52.192;8.834;2023-05-07T06:17:01;12.50;99.90
44627;DHT22;30333;52.192;8.834;2023-05-07T06:19:26;12.60;99.90
44627;DHT22;30333;52.192;8.834;2023-05-07T06:21:53;12.60;99.90
44627;DHT22;30333;52.192;8.834;2023-05-07T06:24:19;12.60;99.90
44627;DHT22;30333;52.192;8.834;2023-05-07T06:29:10;12.70;99.90
44627;DHT22;30333;52.192;8.834;2023-05-07T06:34:02;12.70;99.90
44627;DHT22;30333;52.192;8.834;2023-05-07T06:36:28;12.60;99.90
44627;DHT22;30333;52.192;8.834;2023-05-07T06:38:53;12.60;99.90
44627;DHT22;30333;52.192;8.834;2023-05-07T06:41:19;12.60;99.90
44627;DHT22;30333;52.192;8.834;2023-05-07T06:46:11;12.70;99.90
44627;DHT22;30333;52.192;8.834;2023-05-07T06:48:37;12.70;99.90
44627;DHT22;30333;52.192;8.834;2023-05-07T06:51:02;12.90;99.90
44627;DHT22;30333;52.192;8.834;2023-05-07T06:53:28;12.80;99.90
44627;DHT22;30333;52.192;8.834;2023-05-07T06:55:54;13.00;99.90
44627;DHT22;30333;52.192;8.834;2023-05-07T06:58:20;13.00;99.90
44627;DHT22;30333;52.192;8.834;2023-05-07T07:03:11;12.90;99.90
44627;DHT22;30333;52.192;8.834;2023-05-07T07:17:50;12.80;99.90
44627;DHT22;30333;52.192;8.834;2023-05-07T07:20:16;13.40;99.90
44627;DHT22;30333;52.192;8.834;2023-05-07T07:25:07;13.00;99.90
44627;DHT22;30333;52.192;8.834;2023-05-07T07:27:33;13.00;99.90
44627;DHT22;30333;52.192;8.834;2023-05-07T07:29:59;12.90;99.90
44627;DHT22;30333;52.192;8.834;2023-05-07T07:32:24;13.10;99.90
44627;DHT22;30333;52.192;8.834;2023-05-07T07:34:50;13.00;99.90
44627;DHT22;30333;52.192;8.834;2023-05-07T07:37:16;13.10;99.90
44627;DHT22;30333;52.192;8.834;2023-05-07T07:39:41;13.10;99.90
44627;DHT22;30333;52.192;8.834;2023-05-07T07:42:07;13.20;99.90
44627;DHT22;30333;52.192;8.834;2023-05-07T07:44:32;13.50;99.90
44627;DHT22;30333;52.192;8.834;2023-05-07T07:46:58;13.50;99.90
44627;DHT22;30333;52.192;8.834;2023-05-07T07:49:23;13.60;99.90
44627;DHT22;30333;52.192;8.834;2023-05-07T07:51:49;13.70;99.90
44627;DHT22;30333;52.192;8.834;2023-05-07T07:59:06;13.60;99.90
44627;DHT22;30333;52.192;8.834;2023-05-07T08:03:58;13.60;99.90
44627;DHT22;30333;52.192;8.834;2023-05-07T08:06:24;13.80;99.90
44627;DHT22;30333;52.192;8.834;2023-05-07T08:08:51;13.70;99.90
44627;DHT22;30333;52.192;8.834;2023-05-07T08:13:42;13.80;99.90
44627;DHT22;30333;52.192;8.834;2023-05-07T08:16:08;13.90;99.90
44627;DHT22;30333;52.192;8.834;2023-05-07T08:18:34;14.60;99.90
44627;DHT22;30333;52.192;8.834;2023-05-07T08:21:00;14.50;99.90
44627;DHT22;30333;52.192;8.834;2023-05-07T08:23:26;14.40;99.90
44627;DHT22;30333;52.192;8.834;2023-05-07T08:25:51;14.70;99.90
44627;DHT22;30333;52.192;8.834;2023-05-07T08:33:10;15.20;99.90
44627;DHT22;30333;52.192;8.834;2023-05-07T08:35:36;15.40;99.90
44627;DHT22;30333;52.192;8.834;2023-05-07T08:38:01;15.40;99.90
44627;DHT22;30333;52.192;8.834;2023-05-07T08:40:27;15.40;99.90
44627;DHT22;30333;52.192;8.834;2023-05-07T08:45:20;15.60;99.90
44627;DHT22;30333;52.192;8.834;2023-05-07T08:47:53;15.60;99.90
44627;DHT22;30333;52.192;8.834;2023-05-07T08:50:20;15.70;99.90
44627;DHT22;30333;52.192;8.834;2023-05-07T08:52:47;15.90;99.90
44627;DHT22;30333;52.192;8.834;2023-05-07T08:55:13;15.90;99.90
44627;DHT22;30333;52.192;8.834;2023-05-07T08:57:38;15.90;99.90
44627;DHT22;30333;52.192;8.834;2023-05-07T09:00:04;15.80;99.90
44627;DHT22;30333;52.192;8.834;2023-05-07T09:02:32;15.90;99.90
44627;DHT22;30333;52.192;8.834;2023-05-07T09:04:58;15.90;99.90
44627;DHT22;30333;52.192;8.834;2023-05-07T09:07:24;15.90;99.90
44627;DHT22;30333;52.192;8.834;2023-05-07T09:12:17;16.00;99.90
44627;DHT22;30333;52.192;8.834;2023-05-07T09:14:43;15.90;99.90
44627;DHT22;30333;52.192;8.834;2023-05-07T09:19:34;16.00;99.90
44627;DHT22;30333;52.192;8.834;2023-05-07T09:22:04;16.00;99.90
44627;DHT22;30333;52.192;8.834;2023-05-07T09:24:31;15.90;99.90
44627;DHT22;30333;52.192;8.834;2023-05-07T09:27:01;15.70;99.90
44627;DHT22;30333;52.192;8.834;2023-05-07T09:29:28;15.70;99.90
44627;DHT22;30333;52.192;8.834;2023-05-07T09:31:55;15.70;99.90
44627;DHT22;30333;52.192;8.834;2023-05-07T09:34:21;15.70;99.90
44627;DHT22;30333;52.192;8.834;2023-05-07T09:36:47;16.90;99.90
44627;DHT22;30333;52.192;8.834;2023-05-07T09:41:46;15.90;99.90
44627;DHT22;30333;52.192;8.834;2023-05-07T09:44:13;15.70;99.90
44627;DHT22;30333;52.192;8.834;2023-05-07T09:46:42;16.20;99.90
44627;DHT22;30333;52.192;8.834;2023-05-07T09:49:12;16.20;99.90
44627;DHT22;30333;52.192;8.834;2023-05-07T09:51:48;16.30;99.90
44627;DHT22;30333;52.192;8.834;2023-05-07T09:54:15;16.40;99.90
44627;DHT22;30333;52.192;8.834;2023-05-07T09:56:43;16.40;99.90
44627;DHT22;30333;52.192;8.834;2023-05-07T09:59:11;16.30;99.90
44627;DHT22;30333;52.192;8.834;2023-05-07T10:01:38;16.40;99.90
44627;DHT22;30333;52.192;8.834;2023-05-07T10:04:06;16.40;99.90
44627;DHT22;30333;52.192;8.834;2023-05-07T10:06:34;16.30;99.90
44627;DHT22;30333;52.192;8.834;2023-05-07T10:11:26;16.30;99.90
44627;DHT22;30333;52.192;8.834;2023-05-07T10:13:53;16.30;99.90
44627;DHT22;30333;52.192;8.834;2023-05-07T10:16:19;16.30;99.90
44627;DHT22;30333;52.192;8.834;2023-05-07T10:18:46;16.20;99.90
44627;DHT22;30333;52.192;8.834;2023-05-07T10:21:20;16.40;99.90
44627;DHT22;30333;52.192;8.834;2023-05-07T10:23:51;16.40;99.90
44627;DHT22;30333;52.192;8.834;2023-05-07T10:26:20;16.60;99.90
44627;DHT22;30333;52.192;8.834;2023-05-07T10:28:50;16.70;99.90
44627;DHT22;30333;52.192;8.834;2023-05-07T10:32:38;16.70;99.90
44627;DHT22;30333;52.192;8.834;2023-05-07T10:34:36;16.70;99.90
44627;DHT22;30333;52.192;8.834;2023-05-07T10:37:03;16.40;99.90
44627;DHT22;30333;52.192;8.834;2023-05-07T10:39:31;16.40;99.90
44627;DHT22;30333;52.192;8.834;2023-05-07T10:42:06;16.40;99.90
44627;DHT22;30333;52.192;8.834;2023-05-07T10:44:32;16.40;99.90
44627;DHT22;30333;52.192;8.834;2023-05-07T10:47:09;16.50;99.90
44627;DHT22;30333;52.192;8.834;2023-05-07T10:50:21;16.50;99.90
44627;DHT22;30333;52.192;8.834;2023-05-07T10:52:23;16.60;99.90
44627;DHT22;30333;52.192;8.834;2023-05-07T10:57:50;16.70;99.90
44627;DHT22;30333;52.192;8.834;2023-05-07T11:05:27;17.20;99.90
44627;DHT22;30333;52.192;8.834;2023-05-07T11:08:03;17.00;99.90
44627;DHT22;30333;52.192;8.834;2023-05-07T11:10:51;17.30;99.90
44627;DHT22;30333;52.192;8.834;2023-05-07T11:13:18;17.30;99.90
44627;DHT22;30333;52.192;8.834;2023-05-07T11:16:03;17.60;99.90
44627;DHT22;30333;52.192;8.834;2023-05-07T11:18:49;17.60;99.90
44627;DHT22;30333;52.192;8.834;2023-05-07T11:21:37;17.70;99.90
44627;DHT22;30333;52.192;8.834;2023-05-07T11:24:08;17.70;99.90
44627;DHT22;30333;52.192;8.834;2023-05-07T11:26:45;17.90;99.90
44627;DHT22;30333;52.192;8.834;2023-05-07T11:29:17;18.10;99.90
44627;DHT22;30333;52.192;8.834;2023-05-07T11:31:42;17.90;99.90
44627;DHT22;30333;52.192;8.834;2023-05-07T11:36:41;17.90;99.90
44627;DHT22;30333;52.192;8.834;2023-05-07T11:39:30;18.10;99.90
44627;DHT22;30333;52.192;8.834;2023-05-07T11:41:56;18.10;99.90
44627;DHT22;30333;52.192;8.834;2023-05-07T11:44:22;17.90;99.90
44627;DHT22;30333;52.192;8.834;2023-05-07T11:46:48;17.80;99.90
44627;DHT22;30333;52.192;8.834;2023-05-07T11:49:14;17.80;99.90
44627;DHT22;30333;52.192;8.834;2023-05-07T11:54:08;17.10;99.90
44627;DHT22;30333;52.192;8.834;2023-05-07T11:56:34;17.30;99.90
44627;DHT22;30333;52.192;8.834;2023-05-07T12:08:46;17.50;99.90
44627;DHT22;30333;52.192;8.834;2023-05-07T12:11:25;17.50;99.90
44627;DHT22;30333;52.192;8.834;2023-05-07T12:13:51;17.60;99.90
44627;DHT22;30333;52.192;8.834;2023-05-07T12:16:17;17.50;99.90
44627;DHT22;30333;52.192;8.834;2023-05-07T12:18:43;17.50;99.90
44627;DHT22;30333;52.192;8.834;2023-05-07T12:21:09;17.60;99.90
44627;DHT22;30333;52.192;8.834;2023-05-07T12:23:36;17.60;99.90
44627;DHT22;30333;52.192;8.834;2023-05-07T12:26:02;17.70;99.90
44627;DHT22;30333;52.192;8.834;2023-05-07T12:30:54;17.40;99.90
44627;DHT22;30333;52.192;8.834;2023-05-07T12:33:24;17.40;99.90
44627;DHT22;30333;52.192;8.834;2023-05-07T12:35:50;17.40;99.90
44627;DHT22;30333;52.192;8.834;2023-05-07T12:38:17;17.40;99.90
44627;DHT22;30333;52.192;8.834;2023-05-07T12:40:47;17.30;99.90
44627;DHT22;30333;52.192;8.834;2023-05-07T12:43:25;17.40;99.90
44627;DHT22;30333;52.192;8.834;2023-05-07T12:45:53;17.40;99.90
44627;DHT22;30333;52.192;8.834;2023-05-07T12:48:20;17.50;99.90
44627;DHT22;30333;52.192;8.834;2023-05-07T12:50:49;17.40;99.90
44627;DHT22;30333;52.192;8.834;2023-05-07T12:55:46;17.60;99.90
44627;DHT22;30333;52.192;8.834;2023-05-07T12:58:27;17.70;99.90
44627;DHT22;30333;52.192;8.834;2023-05-07T13:00:54;17.70;99.90
44627;DHT22;30333;52.192;8.834;2023-05-07T13:03:35;17.80;99.90
44627;DHT22;30333;52.192;8.834;2023-05-07T13:06:06;17.90;99.90
44627;DHT22;30333;52.192;8.834;2023-05-07T13:08:37;18.60;99.90
44627;DHT22;30333;52.192;8.834;2023-05-07T13:11:04;18.00;99.90
44627;DHT22;30333;52.192;8.834;2023-05-07T13:13:34;18.00;99.90
44627;DHT22;30333;52.192;8.834;2023-05-07T13:16:00;18.10;99.90
44627;DHT22;30333;52.192;8.834;2023-05-07T13:18:26;18.20;99.90
44627;DHT22;30333;52.192;8.834;2023-05-07T13:20:54;18.00;99.90
44627;DHT22;30333;52.192;8.834;2023-05-07T13:23:20;18.00;99.90
44627;DHT22;30333;52.192;8.834;2023-05-07T13:25:47;18.60;99.90
44627;DHT22;30333;52.192;8.834;2023-05-07T13:28:13;18.10;99.90
44627;DHT22;30333;52.192;8.834;2023-05-07T13:33:06;17.90;99.90
44627;DHT22;30333;52.192;8.834;2023-05-07T13:37:57;18.10;99.90
44627;DHT22;30333;52.192;8.834;2023-05-07T13:42:49;18.30;99.90
44627;DHT22;30333;52.192;8.834;2023-05-07T13:45:15;18.40;99.90
44627;DHT22;30333;52.192;8.834;2023-05-07T13:47:41;18.30;99.90
44627;DHT22;30333;52.192;8.834;2023-05-07T13:50:08;18.90;99.90
44627;DHT22;30333;52.192;8.834;2023-05-07T13:52:34;18.10;99.90
44627;DHT22;30333;52.192;8.834;2023-05-07T13:55:04;18.10;99.90
44627;DHT22;30333;52.192;8.834;2023-05-07T13:57:29;19.10;99.90
44627;DHT22;30333;52.192;8.834;2023-05-07T13:59:55;18.60;99.90
44627;DHT22;30333;52.192;8.834;2023-05-07T14:02:20;18.60;99.90
44627;DHT22;30333;52.192;8.834;2023-05-07T14:07:12;18.70;99.90
44627;DHT22;30333;52.192;8.834;2023-05-07T14:09:37;18.80;99.90
44627;DHT22;30333;52.192;8.834;2023-05-07T14:12:03;18.90;99.90
44627;DHT22;30333;52.192;8.834;2023-05-07T14:14:29;18.80;99.90
44627;DHT22;30333;52.192;8.834;2023-05-07T14:16:54;18.80;99.90
44627;DHT22;30333;52.192;8.834;2023-05-07T14:21:48;18.70;99.90
44627;DHT22;30333;52.192;8.834;2023-05-07T14:24:13;18.70;99.90
44627;DHT22;30333;52.192;8.834;2023-05-07T14:26:39;19.00;99.90
44627;DHT22;30333;52.192;8.834;2023-05-07T14:29:04;19.20;99.90
44627;DHT22;30333;52.192;8.834;2023-05-07T14:31:30;19.60;99.80
44627;DHT22;30333;52.192;8.834;2023-05-07T14:33:56;19.60;99.90
44627;DHT22;30333;52.192;8.834;2023-05-07T14:36:23;19.90;99.20
44627;DHT22;30333;52.192;8.834;2023-05-07T14:38:52;19.80;99.30
44627;DHT22;30333;52.192;8.834;2023-05-07T14:48:41;19.60;98.80
44627;DHT22;30333;52.192;8.834;2023-05-07T14:55:59;19.50;99.40
44627;DHT22;30333;52.192;8.834;2023-05-07T14:58:26;19.10;99.10
44627;DHT22;30333;52.192;8.834;2023-05-07T15:00:52;19.10;99.30
44627;DHT22;30333;52.192;8.834;2023-05-07T15:03:17;19.30;99.80
44627;DHT22;30333;52.192;8.834;2023-05-07T15:08:09;18.80;99.90
44627;DHT22;30333;52.192;8.834;2023-05-07T15:10:38;18.70;99.90
44627;DHT22;30333;52.192;8.834;2023-05-07T15:13:07;18.60;99.90
44627;DHT22;30333;52.192;8.834;2023-05-07T15:15:32;18.60;99.90
44627;DHT22;30333;52.192;8.834;2023-05-07T15:17:58;18.60;99.90
44627;DHT22;30333;52.192;8.834;2023-05-07T15:20:25;18.50;99.90
44627;DHT22;30333;52.192;8.834;2023-05-07T15:22:51;19.20;99.90
44627;DHT22;30333;52.192;8.834;2023-05-07T15:25:17;18.80;99.90
44627;DHT22;30333;52.192;8.834;2023-05-07T15:27:42;18.80;99.90
44627;DHT22;30333;52.192;8.834;2023-05-07T15:30:08;18.70;99.90
44627;DHT22;30333;52.192;8.834;2023-05-07T15:32:35;18.80;99.90
44627;DHT22;30333;52.192;8.834;2023-05-07T15:35:01;18.80;99.90
44627;DHT22;30333;52.192;8.834;2023-05-07T15:37:27;18.70;99.90
44627;DHT22;30333;52.192;8.834;2023-05-07T15:39:53;18.70;99.90
44627;DHT22;30333;52.192;8.834;2023-05-07T16:09:09;18.10;99.90
44627;DHT22;30333;52.192;8.834;2023-05-07T16:14:00;18.10;99.90
44627;DHT22;30333;52.192;8.834;2023-05-07T16:16:26;17.70;99.90
44627;DHT22;30333;52.192;8.834;2023-05-07T16:18:57;17.80;99.90
44627;DHT22;30333;52.192;8.834;2023-05-07T16:23:49;18.10;99.90
44627;DHT22;30333;52.192;8.834;2023-05-07T16:26:15;18.50;99.90
44627;DHT22;30333;52.192;8.834;2023-05-07T16:28:42;19.40;99.90
44627;DHT22;30333;52.192;8.834;2023-05-07T16:33:34;19.00;99.90
44627;DHT22;30333;52.192;8.834;2023-05-07T16:36:00;18.00;99.90
44627;DHT22;30333;52.192;8.834;2023-05-07T16:38:26;18.10;99.90
44627;DHT22;30333;52.192;8.834;2023-05-07T16:40:53;18.00;99.90
44627;DHT22;30333;52.192;8.834;2023-05-07T16:45:44;17.90;99.90
44627;DHT22;30333;52.192;8.834;2023-05-07T16:48:11;18.00;99.90
44627;DHT22;30333;52.192;8.834;2023-05-07T16:50:37;18.60;99.90
44627;DHT22;30333;52.192;8.834;2023-05-07T16:53:04;18.00;99.90
44627;DHT22;30333;52.192;8.834;2023-05-07T16:55:31;18.00;99.90
44627;DHT22;30333;52.192;8.834;2023-05-07T16:58:03;17.90;99.90
44627;DHT22;30333;52.192;8.834;2023-05-07T17:00:29;17.80;99.90
44627;DHT22;30333;52.192;8.834;2023-05-07T17:02:54;18.10;99.90
44627;DHT22;30333;52.192;8.834;2023-05-07T17:05:20;17.60;99.90
44627;DHT22;30333;52.192;8.834;2023-05-07T17:07:45;17.70;99.90
44627;DHT22;30333;52.192;8.834;2023-05-07T17:12:37;17.60;99.90
44627;DHT22;30333;52.192;8.834;2023-05-07T17:15:03;17.60;99.90
44627;DHT22;30333;52.192;8.834;2023-05-07T17:17:29;17.60;99.90
44627;DHT22;30333;52.192;8.834;2023-05-07T17:19:55;17.40;99.90
44627;DHT22;30333;52.192;8.834;2023-05-07T17:22:21;17.40;99.90
44627;DHT22;30333;52.192;8.834;2023-05-07T17:27:12;17.00;99.90
44627;DHT22;30333;52.192;8.834;2023-05-07T17:29:38;17.00;99.90
44627;DHT22;30333;52.192;8.834;2023-05-07T17:32:03;17.00;99.90
44627;DHT22;30333;52.192;8.834;2023-05-07T17:34:29;16.80;99.90
44627;DHT22;30333;52.192;8.834;2023-05-07T17:36:56;16.80;99.90
44627;DHT22;30333;52.192;8.834;2023-05-07T17:39:24;16.80;99.90
44627;DHT22;30333;52.192;8.834;2023-05-07T18:01:21;16.00;99.90
44627;DHT22;30333;52.192;8.834;2023-05-07T18:11:08;15.80;99.90
44627;DHT22;30333;52.192;8.834;2023-05-07T18:13:34;15.60;99.90
44627;DHT22;30333;52.192;8.834;2023-05-07T18:18:26;15.30;99.90
44627;DHT22;30333;52.192;8.834;2023-05-07T18:20:57;15.40;99.90
44627;DHT22;30333;52.192;8.834;2023-05-07T18:23:23;15.40;99.90
44627;DHT22;30333;52.192;8.834;2023-05-07T18:25:49;15.30;99.90
44627;DHT22;30333;52.192;8.834;2023-05-07T18:28:15;15.30;99.90
44627;DHT22;30333;52.192;8.834;2023-05-07T18:30:41;15.10;99.90
44627;DHT22;30333;52.192;8.834;2023-05-07T18:33:07;15.10;99.90
44627;DHT22;30333;52.192;8.834;2023-05-07T18:37:58;14.90;99.90
44627;DHT22;30333;52.192;8.834;2023-05-07T18:42:50;14.60;99.90
44627;DHT22;30333;52.192;8.834;2023-05-07T18:50:07;14.20;99.90
44627;DHT22;30333;52.192;8.834;2023-05-07T18:52:34;14.20;99.90
44627;DHT22;30333;52.192;8.834;2023-05-07T18:57:25;14.20;99.90
44627;DHT22;30333;52.192;8.834;2023-05-07T18:59:57;14.20;99.90
44627;DHT22;30333;52.192;8.834;2023-05-07T19:02:22;14.20;99.90
44627;DHT22;30333;52.192;8.834;2023-05-07T19:04:48;14.10;99.90
44627;DHT22;30333;52.192;8.834;2023-05-07T19:07:14;14.00;99.90
44627;DHT22;30333;52.192;8.834;2023-05-07T19:09:40;13.90;99.90
44627;DHT22;30333;52.192;8.834;2023-05-07T19:12:05;13.80;99.90
44627;DHT22;30333;52.192;8.834;2023-05-07T19:19:23;13.40;99.90
44627;DHT22;30333;52.192;8.834;2023-05-07T19:26:41;13.40;99.90
44627;DHT22;30333;52.192;8.834;2023-05-07T19:29:07;13.20;99.90
44627;DHT22;30333;52.192;8.834;2023-05-07T19:33:59;13.20;99.90
44627;DHT22;30333;52.192;8.834;2023-05-07T19:38:51;13.20;99.90
44627;DHT22;30333;52.192;8.834;2023-05-07T19:41:19;13.10;99.90
44627;DHT22;30333;52.192;8.834;2023-05-07T19:43:45;13.10;99.90
44627;DHT22;30333;52.192;8.834;2023-05-07T19:46:10;13.10;99.90
44627;DHT22;30333;52.192;8.834;2023-05-07T19:48:36;13.20;99.90
44627;DHT22;30333;52.192;8.834;2023-05-07T19:51:01;13.10;99.90
44627;DHT22;30333;52.192;8.834;2023-05-07T19:53:27;13.10;99.90
44627;DHT22;30333;52.192;8.834;2023-05-07T19:56:05;12.90;99.90
44627;DHT22;30333;52.192;8.834;2023-05-07T19:58:31;12.90;99.90
44627;DHT22;30333;52.192;8.834;2023-05-07T20:00:57;12.70;99.90
44627;DHT22;30333;52.192;8.834;2023-05-07T20:03:22;12.70;99.90
44627;DHT22;30333;52.192;8.834;2023-05-07T20:08:15;12.60;99.90
44627;DHT22;30333;52.192;8.834;2023-05-07T20:10:41;12.60;99.90
44627;DHT22;30333;52.192;8.834;2023-05-07T20:13:06;12.60;99.90
44627;DHT22;30333;52.192;8.834;2023-05-07T20:15:32;12.50;99.90
44627;DHT22;30333;52.192;8.834;2023-05-07T20:17:57;12.40;99.90
44627;DHT22;30333;52.192;8.834;2023-05-07T20:20:23;12.50;99.90
44627;DHT22;30333;52.192;8.834;2023-05-07T20:22:48;12.50;99.90
44627;DHT22;30333;52.192;8.834;2023-05-07T20:25:14;12.40;99.90
44627;DHT22;30333;52.192;8.834;2023-05-07T20:27:40;12.80;99.90
44627;DHT22;30333;52.192;8.834;2023-05-07T20:30:06;12.40;99.90